sensor_id;sensor_type;location;lat;lon;timestamp;pressure;altitude;pressure_sealevel;temperature;humidity
20043;BME280;10182;52.896;6.496;2022-12-11T00:04:38;101033.41;;;-1.19;100.00
20043;BME280;10182;52.896;6.496;2022-12-11T00:09:41;101026.44;;;-1.26;100.00
20043;BME280;10182;52.896;6.496;2022-12-11T00:14:42;101025.59;;;-1.30;100.00
20043;BME280;10182;52.896;6.496;2022-12-11T00:19:44;101031.72;;;-1.20;100.00
20043;BME280;10182;52.896;6.496;2022-12-11T00:24:47;101024.75;;;-1.23;100.00
20043;BME280;10182;52.896;6.496;2022-12-11T00:29:49;101022.19;;;-1.16;100.00
20043;BME280;10182;52.896;6.496;2022-12-11T00:34:50;101022.22;;;-1.13;100.00
20043;BME280;10182;52.896;6.496;2022-12-11T00:39:54;101014.41;;;-1.12;100.00
20043;BME280;10182;52.896;6.496;2022-12-11T00:44:55;101027.44;;;-1.09;100.00
20043;BME280;10182;52.896;6.496;2022-12-11T00:49:57;101031.78;;;-1.02;100.00
20043;BME280;10182;52.896;6.496;2022-12-11T00:55:00;101032.66;;;-1.04;100.00
20043;BME280;10182;52.896;6.496;2022-12-11T01:00:04;101033.56;;;-0.99;100.00
20043;BME280;10182;52.896;6.496;2022-12-11T01:05:08;101037.06;;;-0.92;100.00
20043;BME280;10182;52.896;6.496;2022-12-11T01:10:12;101030.97;;;-0.96;100.00
20043;BME280;10182;52.896;6.496;2022-12-11T01:15:27;101025.75;;;-0.99;100.00
20043;BME280;10182;52.896;6.496;2022-12-11T01:20:29;101024.91;;;-0.98;100.00
20043;BME280;10182;52.896;6.496;2022-12-11T01:25:35;101026.59;;;-1.00;100.00
20043;BME280;10182;52.896;6.496;2022-12-11T01:30:39;101027.50;;;-0.98;100.00
20043;BME280;10182;52.896;6.496;2022-12-11T01:35:41;101023.19;;;-0.94;100.00
20043;BME280;10182;52.896;6.496;2022-12-11T01:40:46;101026.63;;;-0.98;100.00
20043;BME280;10182;52.896;6.496;2022-12-11T01:45:48;101036.16;;;-1.02;100.00
20043;BME280;10182;52.896;6.496;2022-12-11T01:50:54;101024.94;;;-0.89;100.00
20043;BME280;10182;52.896;6.496;2022-12-11T01:55:58;101031.06;;;-0.80;100.00
20043;BME280;10182;52.896;6.496;2022-12-11T02:01:01;101018.84;;;-0.89;100.00
20043;BME280;10182;52.896;6.496;2022-12-11T02:06:05;101034.50;;;-0.86;100.00
20043;BME280;10182;52.896;6.496;2022-12-11T02:11:11;101027.50;;;-0.95;100.00
20043;BME280;10182;52.896;6.496;2022-12-11T02:16:20;101018.00;;;-0.87;100.00
20043;BME280;10182;52.896;6.496;2022-12-11T02:21:27;101021.47;;;-0.89;100.00
20043;BME280;10182;52.896;6.496;2022-12-11T02:26:48;101011.91;;;-0.93;100.00
20043;BME280;10182;52.896;6.496;2022-12-11T02:31:58;101013.66;;;-0.88;100.00
20043;BME280;10182;52.896;6.496;2022-12-11T02:37:04;101008.50;;;-0.81;100.00
20043;BME280;10182;52.896;6.496;2022-12-11T02:42:09;101014.59;;;-0.73;100.00
20043;BME280;10182;52.896;6.496;2022-12-11T02:47:14;101012.00;;;-0.70;100.00
20043;BME280;10182;52.896;6.496;2022-12-11T02:52:19;101002.50;;;-0.70;100.00
20043;BME280;10182;52.896;6.496;2022-12-11T02:57:25;100998.13;;;-0.72;100.00
20043;BME280;10182;52.896;6.496;2022-12-11T03:02:30;101003.31;;;-0.80;100.00
20043;BME280;10182;52.896;6.496;2022-12-11T03:07:34;100997.28;;;-0.68;100.00
20043;BME280;10182;52.896;6.496;2022-12-11T03:12:39;101003.34;;;-0.71;100.00
20043;BME280;10182;52.896;6.496;2022-12-11T03:17:52;100995.53;;;-0.68;100.00
20043;BME280;10182;52.896;6.496;2022-12-11T03:23:03;100999.00;;;-0.69;100.00
20043;BME280;10182;52.896;6.496;2022-12-11T03:28:11;100999.88;;;-0.70;100.00
20043;BME280;10182;52.896;6.496;2022-12-11T03:33:20;100995.53;;;-0.68;100.00
20043;BME280;10182;52.896;6.496;2022-12-11T03:38:27;100999.84;;;-0.71;100.00
20043;BME280;10182;52.896;6.496;2022-12-11T03:43:33;101000.75;;;-0.64;100.00
20043;BME280;10182;52.896;6.496;2022-12-11T03:48:39;101006.81;;;-0.70;100.00
20043;BME280;10182;52.896;6.496;2022-12-11T03:53:42;100999.03;;;-0.62;100.00
20043;BME280;10182;52.896;6.496;2022-12-11T03:58:45;100987.78;;;-0.60;100.00
20043;BME280;10182;52.896;6.496;2022-12-11T04:03:48;100989.47;;;-0.63;100.00
20043;BME280;10182;52.896;6.496;2022-12-11T04:08:49;100982.56;;;-0.58;100.00
20043;BME280;10182;52.896;6.496;2022-12-11T04:13:51;100984.31;;;-0.56;100.00
20043;BME280;10182;52.896;6.496;2022-12-11T04:19:09;100986.06;;;-0.50;100.00
20043;BME280;10182;52.896;6.496;2022-12-11T04:24:28;100996.47;;;-0.52;100.00
20043;BME280;10182;52.896;6.496;2022-12-11T04:29:29;100990.41;;;-0.46;100.00
20043;BME280;10182;52.896;6.496;2022-12-11T04:34:32;100986.91;;;-0.51;100.00
20043;BME280;10182;52.896;6.496;2022-12-11T04:39:34;100990.38;;;-0.52;100.00
20043;BME280;10182;52.896;6.496;2022-12-11T04:44:36;100992.97;;;-0.52;100.00
20043;BME280;10182;52.896;6.496;2022-12-11T04:49:39;100991.22;;;-0.56;100.00
20043;BME280;10182;52.896;6.496;2022-12-11T04:54:40;100990.38;;;-0.57;100.00
20043;BME280;10182;52.896;6.496;2022-12-11T04:59:42;100979.09;;;-0.53;100.00
20043;BME280;10182;52.896;6.496;2022-12-11T05:04:45;100971.34;;;-0.42;100.00
20043;BME280;10182;52.896;6.496;2022-12-11T05:09:47;100963.53;;;-0.43;100.00
20043;BME280;10182;52.896;6.496;2022-12-11T05:14:50;100955.72;;;-0.43;100.00
20043;BME280;10182;52.896;6.496;2022-12-11T05:19:53;100951.41;;;-0.38;100.00
20043;BME280;10182;52.896;6.496;2022-12-11T05:24:55;100947.91;;;-0.42;100.00
20043;BME280;10182;52.896;6.496;2022-12-11T05:29:57;100944.41;;;-0.44;100.00
20043;BME280;10182;52.896;6.496;2022-12-11T05:35:00;100945.28;;;-0.49;100.00
20043;BME280;10182;52.896;6.496;2022-12-11T05:40:03;100940.06;;;-0.48;100.00
20043;BME280;10182;52.896;6.496;2022-12-11T05:45:06;100940.06;;;-0.49;100.00
20043;BME280;10182;52.896;6.496;2022-12-11T05:50:09;100945.28;;;-0.51;100.00
20043;BME280;10182;52.896;6.496;2022-12-11T05:55:11;100944.41;;;-0.50;100.00
20043;BME280;10182;52.896;6.496;2022-12-11T06:00:13;100937.47;;;-0.51;100.00
20043;BME280;10182;52.896;6.496;2022-12-11T06:05:16;100934.00;;;-0.53;100.00
20043;BME280;10182;52.896;6.496;2022-12-11T06:10:17;100927.94;;;-0.50;100.00
20043;BME280;10182;52.896;6.496;2022-12-11T06:15:19;100925.34;;;-0.47;100.00
20043;BME280;10182;52.896;6.496;2022-12-11T06:20:22;100929.69;;;-0.46;100.00
20043;BME280;10182;52.896;6.496;2022-12-11T06:25:24;100934.03;;;-0.38;100.00
20043;BME280;10182;52.896;6.496;2022-12-11T06:30:26;100938.38;;;-0.37;100.00
20043;BME280;10182;52.896;6.496;2022-12-11T06:35:29;100944.41;;;-0.45;100.00
20043;BME280;10182;52.896;6.496;2022-12-11T06:40:31;100947.91;;;-0.46;100.00
20043;BME280;10182;52.896;6.496;2022-12-11T06:45:32;100950.50;;;-0.37;100.00
20043;BME280;10182;52.896;6.496;2022-12-11T06:50:36;100946.16;;;-0.41;100.00
20043;BME280;10182;52.896;6.496;2022-12-11T06:55:38;100940.97;;;-0.32;100.00
20043;BME280;10182;52.896;6.496;2022-12-11T07:00:41;100953.09;;;-0.36;100.00
20043;BME280;10182;52.896;6.496;2022-12-11T07:05:44;100952.28;;;-0.31;100.00
20043;BME280;10182;52.896;6.496;2022-12-11T07:10:46;100968.72;;;-0.45;100.00
20043;BME280;10182;52.896;6.496;2022-12-11T07:15:47;100964.38;;;-0.50;100.00
20043;BME280;10182;52.896;6.496;2022-12-11T07:20:50;100971.31;;;-0.53;100.00
20043;BME280;10182;52.896;6.496;2022-12-11T07:25:52;100968.69;;;-0.56;100.00
20043;BME280;10182;52.896;6.496;2022-12-11T07:30:54;100977.38;;;-0.54;100.00
20043;BME280;10182;52.896;6.496;2022-12-11T07:35:59;100980.84;;;-0.50;100.00
20043;BME280;10182;52.896;6.496;2022-12-11T07:41:02;100974.75;;;-0.52;100.00
20043;BME280;10182;52.896;6.496;2022-12-11T07:46:06;100974.75;;;-0.55;100.00
20043;BME280;10182;52.896;6.496;2022-12-11T07:51:10;100971.34;;;-0.43;100.00
20043;BME280;10182;52.896;6.496;2022-12-11T07:56:14;100959.16;;;-0.55;100.00
20043;BME280;10182;52.896;6.496;2022-12-11T08:01:18;100966.97;;;-0.58;100.00
20043;BME280;10182;52.896;6.496;2022-12-11T08:06:27;100968.69;;;-0.59;100.00
20043;BME280;10182;52.896;6.496;2022-12-11T08:11:29;100969.56;;;-0.54;100.00
20043;BME280;10182;52.896;6.496;2022-12-11T08:16:30;100973.94;;;-0.46;100.00
20043;BME280;10182;52.896;6.496;2022-12-11T08:21:33;100977.41;;;-0.40;100.00
20043;BME280;10182;52.896;6.496;2022-12-11T08:26:35;100984.38;;;-0.31;100.00
20043;BME280;10182;52.896;6.496;2022-12-11T08:31:37;100982.66;;;-0.26;100.00
20043;BME280;10182;52.896;6.496;2022-12-11T08:36:41;100977.44;;;-0.27;100.00
20043;BME280;10182;52.896;6.496;2022-12-11T08:41:43;100983.50;;;-0.25;100.00
20043;BME280;10182;52.896;6.496;2022-12-11T08:46:45;100985.25;;;-0.18;100.00
20043;BME280;10182;52.896;6.496;2022-12-11T08:51:48;100980.91;;;-0.25;100.00
20043;BME280;10182;52.896;6.496;2022-12-11T08:56:50;100979.16;;;-0.29;100.00
20043;BME280;10182;52.896;6.496;2022-12-11T09:01:53;100975.72;;;-0.18;100.00
20043;BME280;10182;52.896;6.496;2022-12-11T09:06:56;100969.63;;;-0.24;100.00
20043;BME280;10182;52.896;6.496;2022-12-11T09:11:58;100963.53;;;-0.29;100.00
20043;BME280;10182;52.896;6.496;2022-12-11T09:17:00;100959.19;;;-0.43;100.00
20043;BME280;10182;52.896;6.496;2022-12-11T09:22:06;100963.53;;;-0.40;100.00
20043;BME280;10182;52.896;6.496;2022-12-11T09:27:10;100968.75;;;-0.25;100.00
20043;BME280;10182;52.896;6.496;2022-12-11T09:32:12;100964.44;;;-0.15;100.00
20043;BME280;10182;52.896;6.496;2022-12-11T09:37:16;100968.78;;;-0.05;100.00
20043;BME280;10182;52.896;6.496;2022-12-11T09:42:21;100960.13;;;0.04;100.00
20043;BME280;10182;52.896;6.496;2022-12-11T09:47:30;100959.22;;;0.05;100.00
20043;BME280;10182;52.896;6.496;2022-12-11T09:52:38;100958.34;;;0.11;100.00
20043;BME280;10182;52.896;6.496;2022-12-11T09:57:51;100951.41;;;0.07;100.00
20043;BME280;10182;52.896;6.496;2022-12-11T10:03:10;100948.78;;;-0.04;100.00
20043;BME280;10182;52.896;6.496;2022-12-11T10:08:26;100947.09;;;0.04;100.00
20043;BME280;10182;52.896;6.496;2022-12-11T10:13:36;100945.34;;;0.03;100.00
20043;BME280;10182;52.896;6.496;2022-12-11T10:18:41;100952.28;;;-0.05;100.00
20043;BME280;10182;52.896;6.496;2022-12-11T10:23:50;100965.31;;;-0.01;100.00
20043;BME280;10182;52.896;6.496;2022-12-11T10:28:57;100957.50;;;-0.02;100.00
20043;BME280;10182;52.896;6.496;2022-12-11T10:34:11;100948.81;;;-0.01;100.00
20043;BME280;10182;52.896;6.496;2022-12-11T10:39:21;100947.09;;;0.07;100.00
20043;BME280;10182;52.896;6.496;2022-12-11T10:44:24;100953.16;;;0.05;100.00
20043;BME280;10182;52.896;6.496;2022-12-11T10:49:29;100959.22;;;0.04;100.00
20043;BME280;10182;52.896;6.496;2022-12-11T10:54:37;100947.09;;;0.06;100.00
20043;BME280;10182;52.896;6.496;2022-12-11T10:59:44;100951.41;;;0.05;100.00
20043;BME280;10182;52.896;6.496;2022-12-11T11:04:46;100947.09;;;0.04;100.00
20043;BME280;10182;52.896;6.496;2022-12-11T11:09:50;100947.09;;;0.06;100.00
20043;BME280;10182;52.896;6.496;2022-12-11T11:15:10;100947.09;;;0.06;100.00
20043;BME280;10182;52.896;6.496;2022-12-11T11:20:15;100938.38;;;0.04;100.00
20043;BME280;10182;52.896;6.496;2022-12-11T11:25:20;100927.97;;;0.05;100.00
20043;BME280;10182;52.896;6.496;2022-12-11T11:30:23;100926.25;;;0.04;100.00
20043;BME280;10182;52.896;6.496;2022-12-11T11:35:27;100919.28;;;0.15;100.00
20043;BME280;10182;52.896;6.496;2022-12-11T11:40:33;100904.50;;;0.19;100.00
20043;BME280;10182;52.896;6.496;2022-12-11T11:45:43;100917.56;;;0.21;100.00
20043;BME280;10182;52.896;6.496;2022-12-11T11:50:47;100908.84;;;0.23;100.00
20043;BME280;10182;52.896;6.496;2022-12-11T11:56:00;100905.38;;;0.29;100.00
20043;BME280;10182;52.896;6.496;2022-12-11T12:01:03;100907.97;;;0.27;100.00
20043;BME280;10182;52.896;6.496;2022-12-11T12:06:09;100907.09;;;0.30;100.00
20043;BME280;10182;52.896;6.496;2022-12-11T12:11:22;100902.75;;;0.27;100.00
20043;BME280;10182;52.896;6.496;2022-12-11T12:16:39;100901.03;;;0.28;100.00
20043;BME280;10182;52.896;6.496;2022-12-11T12:21:45;100905.38;;;0.29;100.00
20043;BME280;10182;52.896;6.496;2022-12-11T12:26:54;100897.56;;;0.30;100.00
20043;BME280;10182;52.896;6.496;2022-12-11T12:32:07;100901.91;;;0.17;100.00
20043;BME280;10182;52.896;6.496;2022-12-11T12:37:18;100901.91;;;0.22;100.00
20043;BME280;10182;52.896;6.496;2022-12-11T12:42:30;100907.13;;;0.25;100.00
20043;BME280;10182;52.896;6.496;2022-12-11T12:47:35;100907.97;;;0.24;100.00
20043;BME280;10182;52.896;6.496;2022-12-11T12:52:38;100905.41;;;0.20;100.00
20043;BME280;10182;52.896;6.496;2022-12-11T12:57:44;100900.19;;;0.16;100.00
20043;BME280;10182;52.896;6.496;2022-12-11T13:02:48;100903.66;;;0.20;100.00
20043;BME280;10182;52.896;6.496;2022-12-11T13:07:52;100909.72;;;0.19;100.00
20043;BME280;10182;52.896;6.496;2022-12-11T13:12:56;100907.09;;;0.28;100.00
20043;BME280;10182;52.896;6.496;2022-12-11T13:17:59;100898.44;;;0.25;100.00
20043;BME280;10182;52.896;6.496;2022-12-11T13:23:16;100908.00;;;0.18;100.00
20043;BME280;10182;52.896;6.496;2022-12-11T13:28:32;100901.03;;;0.17;100.00
20043;BME280;10182;52.896;6.496;2022-12-11T13:33:40;100913.19;;;0.23;100.00
20043;BME280;10182;52.896;6.496;2022-12-11T13:38:46;100913.19;;;0.27;100.00
20043;BME280;10182;52.896;6.496;2022-12-11T13:43:51;100916.66;;;0.34;100.00
20043;BME280;10182;52.896;6.496;2022-12-11T13:48:54;100907.13;;;0.16;100.00
20043;BME280;10182;52.896;6.496;2022-12-11T13:54:14;100911.47;;;0.14;100.00
20043;BME280;10182;52.896;6.496;2022-12-11T13:59:24;100912.31;;;0.17;100.00
20043;BME280;10182;52.896;6.496;2022-12-11T14:04:26;100920.19;;;0.08;100.00
20043;BME280;10182;52.896;6.496;2022-12-11T14:09:28;100924.50;;;0.06;100.00
20043;BME280;10182;52.896;6.496;2022-12-11T14:14:39;100923.63;;;-0.01;100.00
20043;BME280;10182;52.896;6.496;2022-12-11T14:19:45;100925.38;;;-0.01;100.00
20043;BME280;10182;52.896;6.496;2022-12-11T14:24:49;100922.78;;;0.10;100.00
20043;BME280;10182;52.896;6.496;2022-12-11T14:29:53;100923.63;;;0.03;100.00
20043;BME280;10182;52.896;6.496;2022-12-11T14:34:55;100924.50;;;0.02;100.00
20043;BME280;10182;52.896;6.496;2022-12-11T14:39:59;100919.31;;;0.00;100.00
20043;BME280;10182;52.896;6.496;2022-12-11T14:45:07;100921.88;;;-0.02;100.00
20043;BME280;10182;52.896;6.496;2022-12-11T14:50:17;100920.19;;;-0.01;100.00
20043;BME280;10182;52.896;6.496;2022-12-11T14:55:23;100926.25;;;-0.01;100.00
20043;BME280;10182;52.896;6.496;2022-12-11T15:00:30;100924.50;;;0.03;100.00
20043;BME280;10182;52.896;6.496;2022-12-11T15:05:33;100914.97;;;0.08;100.00
20043;BME280;10182;52.896;6.496;2022-12-11T15:10:37;100918.44;;;-0.01;100.00
20043;BME280;10182;52.896;6.496;2022-12-11T15:15:45;100927.13;;;-0.11;100.00
20043;BME280;10182;52.896;6.496;2022-12-11T15:20:50;100921.91;;;-0.11;100.00
20043;BME280;10182;52.896;6.496;2022-12-11T15:25:53;100918.44;;;-0.18;100.00
20043;BME280;10182;52.896;6.496;2022-12-11T15:30:58;100922.75;;;-0.17;100.00
20043;BME280;10182;52.896;6.496;2022-12-11T15:36:02;100917.56;;;-0.10;100.00
20043;BME280;10182;52.896;6.496;2022-12-11T15:41:11;100918.41;;;-0.21;100.00
20043;BME280;10182;52.896;6.496;2022-12-11T15:46:15;100927.13;;;-0.22;100.00
20043;BME280;10182;52.896;6.496;2022-12-11T15:51:16;100927.09;;;-0.19;100.00
20043;BME280;10182;52.896;6.496;2022-12-11T15:56:18;100935.78;;;-0.24;100.00
20043;BME280;10182;52.896;6.496;2022-12-11T16:01:21;100935.78;;;-0.21;100.00
20043;BME280;10182;52.896;6.496;2022-12-11T16:06:23;100935.78;;;-0.24;100.00
20043;BME280;10182;52.896;6.496;2022-12-11T16:11:25;100933.19;;;-0.27;100.00
20043;BME280;10182;52.896;6.496;2022-12-11T16:16:28;100936.66;;;-0.30;100.00
20043;BME280;10182;52.896;6.496;2022-12-11T16:21:30;100943.59;;;-0.27;100.00
20043;BME280;10182;52.896;6.496;2022-12-11T16:26:31;100938.38;;;-0.29;100.00
20043;BME280;10182;52.896;6.496;2022-12-11T16:31:34;100936.66;;;-0.28;100.00
20043;BME280;10182;52.896;6.496;2022-12-11T16:36:36;100939.25;;;-0.30;100.00
20043;BME280;10182;52.896;6.496;2022-12-11T16:41:38;100940.13;;;-0.31;100.00
20043;BME280;10182;52.896;6.496;2022-12-11T16:46:41;100933.16;;;-0.29;100.00
20043;BME280;10182;52.896;6.496;2022-12-11T16:51:43;100931.44;;;-0.27;100.00
20043;BME280;10182;52.896;6.496;2022-12-11T16:56:44;100927.97;;;-0.21;100.00
20043;BME280;10182;52.896;6.496;2022-12-11T17:01:48;100931.44;;;-0.25;100.00
20043;BME280;10182;52.896;6.496;2022-12-11T17:06:50;100940.13;;;-0.29;100.00
20043;BME280;10182;52.896;6.496;2022-12-11T17:11:52;100934.03;;;-0.27;100.00
20043;BME280;10182;52.896;6.496;2022-12-11T17:16:55;100939.25;;;-0.24;100.00
20043;BME280;10182;52.896;6.496;2022-12-11T17:21:57;100943.59;;;-0.35;100.00
20043;BME280;10182;52.896;6.496;2022-12-11T17:26:58;100946.22;;;-0.27;100.00
20043;BME280;10182;52.896;6.496;2022-12-11T17:32:02;100940.13;;;-0.31;100.00
20043;BME280;10182;52.896;6.496;2022-12-11T17:37:03;100944.41;;;-0.48;100.00
20043;BME280;10182;52.896;6.496;2022-12-11T17:42:05;100945.31;;;-0.32;100.00
20043;BME280;10182;52.896;6.496;2022-12-11T17:47:08;100942.69;;;-0.40;100.00
20043;BME280;10182;52.896;6.496;2022-12-11T17:52:11;100941.84;;;-0.28;100.00
20043;BME280;10182;52.896;6.496;2022-12-11T17:57:12;100943.59;;;-0.33;100.00
20043;BME280;10182;52.896;6.496;2022-12-11T18:02:15;100953.13;;;-0.32;100.00
20043;BME280;10182;52.896;6.496;2022-12-11T18:07:17;100950.53;;;-0.32;100.00
20043;BME280;10182;52.896;6.496;2022-12-11T18:12:19;100953.13;;;-0.34;100.00
20043;BME280;10182;52.896;6.496;2022-12-11T18:17:25;100952.25;;;-0.35;100.00
20043;BME280;10182;52.896;6.496;2022-12-11T18:22:26;100950.53;;;-0.29;100.00
20043;BME280;10182;52.896;6.496;2022-12-11T18:27:31;100943.59;;;-0.17;100.00
20043;BME280;10182;52.896;6.496;2022-12-11T18:32:34;100946.22;;;-0.12;100.00
20043;BME280;10182;52.896;6.496;2022-12-11T18:37:36;100943.63;;;-0.13;100.00
20043;BME280;10182;52.896;6.496;2022-12-11T18:42:38;100941.88;;;-0.07;100.00
20043;BME280;10182;52.896;6.496;2022-12-11T18:47:41;100933.19;;;-0.01;100.00
20043;BME280;10182;52.896;6.496;2022-12-11T18:52:43;100933.16;;;-0.04;100.00
20043;BME280;10182;52.896;6.496;2022-12-11T18:57:45;100937.50;;;-0.02;100.00
20043;BME280;10182;52.896;6.496;2022-12-11T19:02:50;100933.16;;;-0.18;100.00
20043;BME280;10182;52.896;6.496;2022-12-11T19:07:52;100931.44;;;-0.14;100.00
20043;BME280;10182;52.896;6.496;2022-12-11T19:12:53;100933.19;;;-0.20;100.00
20043;BME280;10182;52.896;6.496;2022-12-11T19:17:56;100930.59;;;-0.26;100.00
20043;BME280;10182;52.896;6.496;2022-12-11T19:22:58;100930.56;;;-0.30;100.00
20043;BME280;10182;52.896;6.496;2022-12-11T19:28:00;100931.44;;;-0.25;100.00
20043;BME280;10182;52.896;6.496;2022-12-11T19:33:03;100928.84;;;-0.27;100.00
20043;BME280;10182;52.896;6.496;2022-12-11T19:38:04;100943.59;;;-0.27;100.00
20043;BME280;10182;52.896;6.496;2022-12-11T19:43:07;100945.31;;;-0.34;100.00
20043;BME280;10182;52.896;6.496;2022-12-11T19:48:12;100949.66;;;-0.33;100.00
20043;BME280;10182;52.896;6.496;2022-12-11T19:53:14;100956.63;;;-0.26;100.00
20043;BME280;10182;52.896;6.496;2022-12-11T19:58:16;100951.38;;;-0.32;100.00
20043;BME280;10182;52.896;6.496;2022-12-11T20:03:19;100947.94;;;-0.32;100.00
20043;BME280;10182;52.896;6.496;2022-12-11T20:08:21;100951.41;;;-0.24;100.00
20043;BME280;10182;52.896;6.496;2022-12-11T20:13:22;100959.22;;;-0.17;100.00
20043;BME280;10182;52.896;6.496;2022-12-11T20:18:26;100951.41;;;-0.21;100.00
20043;BME280;10182;52.896;6.496;2022-12-11T20:23:27;100960.97;;;-0.20;100.00
20043;BME280;10182;52.896;6.496;2022-12-11T20:28:29;100966.16;;;-0.17;100.00
20043;BME280;10182;52.896;6.496;2022-12-11T20:33:32;100965.28;;;-0.28;100.00
20043;BME280;10182;52.896;6.496;2022-12-11T20:38:35;100966.16;;;-0.14;100.00
20043;BME280;10182;52.896;6.496;2022-12-11T20:43:37;100960.97;;;-0.11;100.00
20043;BME280;10182;52.896;6.496;2022-12-11T20:48:42;100960.97;;;-0.11;100.00
20043;BME280;10182;52.896;6.496;2022-12-11T20:53:44;100953.16;;;-0.06;100.00
20043;BME280;10182;52.896;6.496;2022-12-11T20:58:46;100958.34;;;-0.20;100.00
20043;BME280;10182;52.896;6.496;2022-12-11T21:03:49;100962.69;;;-0.30;100.00
20043;BME280;10182;52.896;6.496;2022-12-11T21:08:52;100956.56;;;-0.40;100.00
20043;BME280;10182;52.896;6.496;2022-12-11T21:13:54;100969.59;;;-0.43;100.00
20043;BME280;10182;52.896;6.496;2022-12-11T21:18:57;100969.59;;;-0.44;100.00
20043;BME280;10182;52.896;6.496;2022-12-11T21:23:59;100969.59;;;-0.41;100.00
20043;BME280;10182;52.896;6.496;2022-12-11T21:29:01;100966.13;;;-0.43;100.00
20043;BME280;10182;52.896;6.496;2022-12-11T21:34:04;100966.97;;;-0.43;100.00
20043;BME280;10182;52.896;6.496;2022-12-11T21:39:06;100962.66;;;-0.39;100.00
20043;BME280;10182;52.896;6.496;2022-12-11T21:44:11;100963.53;;;-0.46;100.00
20043;BME280;10182;52.896;6.496;2022-12-11T21:49:14;100965.25;;;-0.45;100.00
20043;BME280;10182;52.896;6.496;2022-12-11T21:54:17;100965.25;;;-0.45;100.00
20043;BME280;10182;52.896;6.496;2022-12-11T21:59:19;100970.50;;;-0.27;100.00
20043;BME280;10182;52.896;6.496;2022-12-11T22:04:22;100970.50;;;-0.21;100.00
20043;BME280;10182;52.896;6.496;2022-12-11T22:09:24;100975.72;;;-0.16;100.00
20043;BME280;10182;52.896;6.496;2022-12-11T22:14:25;100973.09;;;-0.10;100.00
20043;BME280;10182;52.896;6.496;2022-12-11T22:19:28;100974.84;;;-0.21;100.00
20043;BME280;10182;52.896;6.496;2022-12-11T22:24:30;100981.75;;;-0.25;100.00
20043;BME280;10182;52.896;6.496;2022-12-11T22:29:32;100983.50;;;-0.27;100.00
20043;BME280;10182;52.896;6.496;2022-12-11T22:34:35;100986.09;;;-0.36;100.00
20043;BME280;10182;52.896;6.496;2022-12-11T22:39:37;100986.97;;;-0.25;100.00
20043;BME280;10182;52.896;6.496;2022-12-11T22:44:38;100990.47;;;-0.27;100.00
20043;BME280;10182;52.896;6.496;2022-12-11T22:49:41;100987.00;;;-0.15;100.00
20043;BME280;10182;52.896;6.496;2022-12-11T22:54:43;100982.66;;;-0.20;100.00
20043;BME280;10182;52.896;6.496;2022-12-11T22:59:45;100978.31;;;-0.27;100.00
20043;BME280;10182;52.896;6.496;2022-12-11T23:04:48;100979.16;;;-0.32;100.00
20043;BME280;10182;52.896;6.496;2022-12-11T23:09:49;100981.75;;;-0.36;100.00
20043;BME280;10182;52.896;6.496;2022-12-11T23:14:51;100983.50;;;-0.36;100.00
20043;BME280;10182;52.896;6.496;2022-12-11T23:19:54;100977.44;;;-0.33;100.00
20043;BME280;10182;52.896;6.496;2022-12-11T23:24:56;100986.09;;;-0.36;100.00
20043;BME280;10182;52.896;6.496;2022-12-11T23:29:58;100980.88;;;-0.39;100.00
20043;BME280;10182;52.896;6.496;2022-12-11T23:35:01;100980.03;;;-0.18;100.00
20043;BME280;10182;52.896;6.496;2022-12-11T23:40:03;100985.25;;;-0.17;100.00
20043;BME280;10182;52.896;6.496;2022-12-11T23:45:06;100982.66;;;-0.26;100.00
20043;BME280;10182;52.896;6.496;2022-12-11T23:50:09;100997.41;;;-0.19;100.00
20043;BME280;10182;52.896;6.496;2022-12-11T23:55:11;100995.69;;;-0.15;100.00
